Terminal Aerodrome Forecast
Issued by NWS

Home | Current Version | Previous Version | Graphics & Text | Print | Product List | Glossary On
Versions: 1 2 3 4 5 6 7 8 9 10 11 12 13 14 15 16 17 18 19 20 21 22 23 24 25 26 27 28 29 30 31 32 33 34 35 36 37 38
000
FTUS43 KGRB 290500
TAFRHI
TAF
KRHI 290520Z 2906/3006 30004KT P6SM VCSH SCT040 BKN080
     FM290800 30003KT P6SM BKN080
     FM291600 29007KT P6SM VCSH SCT040 BKN060
     FM300100 VRB02KT P6SM SCT040 SCT080=

USA.gov is the U.S. government's official web portal to all federal, state and local government web resources and services.